PWSweather.com
Personal Weather Stations
Station Observations
WAIROAHB
Wairoa, Northern Hawkes Bay -NZ 4108

WairoaNorthern Hawkes Bay -NZ 4108

Lat: -39.04516934, Lon: 177.4263989

Elevation: 156

Station Type: WS3083

http://wairoa.net/weather/index.htm

High Low Average
Temperature 76.3°F24.6°C 58.5°F14.7°C 66.9°F19.4°C
Dew Point 53.3°F11.8°C 37.0°F2.8°C 46.2°F7.9°C
Winds 19.0 mph 30.6 kmh Calm Calm 8.0 mph WNW12.9 kmh WNW
Wind Gusts 28.9 mph46.5 kmh 2.2 mph3.5 kmh 15.0 mph24.1 kmh
Humidity 73% 31% 49%
Pressure 29.79 in1008.8 mb 29.59 in1002.0 mb -
Precipitation 0.00 in0.0 mm - -
Hour Temp Dew Point Humidity Winds Wind Gusts Pressure Precip Precip Rate Daily Precip Total
12:00 AM 63.9°F17.7°C 48.8°F9.3°C 58% 3.8 mph NNW6.1 kmh NNW 13.6 mph21.9 kmh 29.59 in1002.0 mb 0.00 in0.0 mm 0.00 in0.0 mm 0.00 in0.0 mm
12:10 AM 63.3°F17.4°C 49.7°F9.8°C 61% 6.0 mph N9.7 kmh N 11.4 mph18.3 kmh 29.59 in1002.0 mb 0.00 in0.0 mm 0.00 in0.0 mm 0.00 in0.0 mm
12:20 AM 63.5°F17.5°C 49.8°F9.9°C 61% 7.6 mph N12.2 kmh N 13.0 mph20.9 kmh 29.59 in1002.0 mb 0.00 in0.0 mm 0.00 in0.0 mm 0.00 in0.0 mm
12:30 AM 63.5°F17.5°C 50.3°F10.2°C 62% 9.2 mph N14.8 kmh N 13.6 mph21.9 kmh 29.59 in1002.0 mb 0.00 in0.0 mm 0.00 in0.0 mm 0.00 in0.0 mm
12:40 AM 63.3°F17.4°C 50.5°F10.3°C 63% 8.3 mph N13.4 kmh N 13.6 mph21.9 kmh 29.59 in1002.0 mb 0.00 in0.0 mm 0.00 in0.0 mm 0.00 in0.0 mm
12:50 AM 63.3°F17.4°C 51.0°F10.6°C 64% 7.6 mph NNW12.2 kmh NNW 12.1 mph19.5 kmh 29.59 in1002.0 mb 0.00 in0.0 mm 0.00 in0.0 mm 0.00 in0.0 mm
01:00 AM 63.5°F17.5°C 51.1°F10.6°C 64% 5.4 mph N8.7 kmh N 12.1 mph19.5 kmh 29.59 in1002.0 mb 0.00 in0.0 mm 0.00 in0.0 mm 0.00 in0.0 mm
01:10 AM 63.3°F17.4°C 51.4°F10.8°C 65% 4.5 mph N7.2 kmh N 11.4 mph18.3 kmh 29.59 in1002.0 mb 0.00 in0.0 mm 0.00 in0.0 mm 0.00 in0.0 mm
01:20 AM 62.6°F17.0°C 51.1°F10.6°C 66% 4.5 mph NNW7.2 kmh NNW 7.6 mph12.2 kmh 29.59 in1002.0 mb 0.00 in0.0 mm 0.00 in0.0 mm 0.00 in0.0 mm
01:30 AM 63.0°F17.2°C 51.4°F10.8°C 66% 8.3 mph N13.4 kmh N 10.7 mph17.2 kmh 29.59 in1002.0 mb 0.00 in0.0 mm 0.00 in0.0 mm 0.00 in0.0 mm
01:40 AM 63.0°F17.2°C 51.4°F10.8°C 66% 3.8 mph N6.1 kmh N 9.8 mph15.8 kmh 29.59 in1002.0 mb 0.00 in0.0 mm 0.00 in0.0 mm 0.00 in0.0 mm
01:50 AM 62.6°F17.0°C 51.9°F11.1°C 68% 3.1 mph NNW5.0 kmh NNW 7.6 mph12.2 kmh 29.59 in1002.0 mb 0.00 in0.0 mm 0.00 in0.0 mm 0.00 in0.0 mm
02:00 AM 61.9°F16.6°C 52.8°F11.6°C 72% 7.6 mph N12.2 kmh N 10.7 mph17.2 kmh 29.59 in1002.0 mb 0.00 in0.0 mm 0.00 in0.0 mm 0.00 in0.0 mm
02:10 AM 62.4°F16.9°C 53.3°F11.8°C 72% 3.1 mph NNW5.0 kmh NNW 10.7 mph17.2 kmh 29.59 in1002.0 mb 0.00 in0.0 mm 0.00 in0.0 mm 0.00 in0.0 mm
02:20 AM 61.9°F16.6°C 52.8°F11.6°C 72% 2.2 mph N3.5 kmh N 6.0 mph9.7 kmh 29.59 in1002.0 mb 0.00 in0.0 mm 0.00 in0.0 mm 0.00 in0.0 mm
02:30 AM 61.7°F16.5°C 53.0°F11.7°C 73% 4.5 mph N7.2 kmh N 8.3 mph13.4 kmh 29.59 in1002.0 mb 0.00 in0.0 mm 0.00 in0.0 mm 0.00 in0.0 mm
02:40 AM 62.6°F17.0°C 52.3°F11.3°C 69% 4.5 mph NNW7.2 kmh NNW 14.5 mph23.3 kmh 29.59 in1002.0 mb 0.00 in0.0 mm 0.00 in0.0 mm 0.00 in0.0 mm
02:50 AM 63.1°F17.3°C 50.8°F10.4°C 64% 8.3 mph N13.4 kmh N 13.6 mph21.9 kmh 29.59 in1002.0 mb 0.00 in0.0 mm 0.00 in0.0 mm 0.00 in0.0 mm
03:00 AM 63.7°F17.6°C 50.4°F10.2°C 62% 9.2 mph N14.8 kmh N 15.2 mph24.5 kmh 29.59 in1002.0 mb 0.00 in0.0 mm 0.00 in0.0 mm 0.00 in0.0 mm
03:10 AM 63.7°F17.6°C 50.0°F10.0°C 61% 9.2 mph NW14.8 kmh NW 14.5 mph23.3 kmh 29.59 in1002.0 mb 0.00 in0.0 mm 0.00 in0.0 mm 0.00 in0.0 mm
03:20 AM 63.5°F17.5°C 48.9°F9.4°C 59% 6.0 mph NW9.7 kmh NW 13.6 mph21.9 kmh 29.60 in1002.4 mb 0.00 in0.0 mm 0.00 in0.0 mm 0.00 in0.0 mm
03:30 AM 63.0°F17.2°C 48.4°F9.1°C 59% 7.6 mph NNW12.2 kmh NNW 13.0 mph20.9 kmh 29.60 in1002.4 mb 0.00 in0.0 mm 0.00 in0.0 mm 0.00 in0.0 mm
03:40 AM 63.0°F17.2°C 48.4°F9.1°C 59% 4.5 mph NW7.2 kmh NW 11.4 mph18.3 kmh 29.60 in1002.4 mb 0.00 in0.0 mm 0.00 in0.0 mm 0.00 in0.0 mm
03:50 AM 62.2°F16.8°C 48.6°F9.2°C 61% 3.1 mph NW5.0 kmh NW 8.3 mph13.4 kmh 29.61 in1002.7 mb 0.00 in0.0 mm 0.00 in0.0 mm 0.00 in0.0 mm
04:00 AM 62.1°F16.7°C 48.9°F9.4°C 62% 6.9 mph NW11.1 kmh NW 10.7 mph17.2 kmh 29.62 in1003.0 mb 0.00 in0.0 mm 0.00 in0.0 mm 0.00 in0.0 mm
04:10 AM 61.7°F16.5°C 48.6°F9.2°C 62% 3.8 mph NNW6.1 kmh NNW 9.8 mph15.8 kmh 29.61 in1002.7 mb 0.00 in0.0 mm 0.00 in0.0 mm 0.00 in0.0 mm
04:20 AM 61.5°F16.4°C 48.8°F9.3°C 63% 2.2 mph NNW3.5 kmh NNW 8.3 mph13.4 kmh 29.62 in1003.0 mb 0.00 in0.0 mm 0.00 in0.0 mm 0.00 in0.0 mm
04:30 AM 61.5°F16.4°C 48.8°F9.3°C 63% 4.5 mph NNW7.2 kmh NNW 7.6 mph12.2 kmh 29.62 in1003.0 mb 0.00 in0.0 mm 0.00 in0.0 mm 0.00 in0.0 mm
04:40 AM 61.3°F16.3°C 49.1°F9.5°C 64% 0.7 mph NW1.1 kmh NW 6.0 mph9.7 kmh 29.62 in1003.0 mb 0.00 in0.0 mm 0.00 in0.0 mm 0.00 in0.0 mm
04:50 AM 60.3°F15.7°C 49.3°F9.6°C 67% 1.6 mph N2.6 kmh N 2.2 mph3.5 kmh 29.63 in1003.4 mb 0.00 in0.0 mm 0.00 in0.0 mm 0.00 in0.0 mm
05:00 AM 59.4°F15.2°C 48.8°F9.3°C 68% Calm Calm 2.2 mph3.5 kmh 29.63 in1003.4 mb 0.00 in0.0 mm 0.00 in0.0 mm 0.00 in0.0 mm
05:10 AM 59.4°F15.2°C 50.3°F10.2°C 72% 2.2 mph NW3.5 kmh NW 3.8 mph6.1 kmh 29.64 in1003.7 mb 0.00 in0.0 mm 0.00 in0.0 mm 0.00 in0.0 mm
05:20 AM 60.8°F16.0°C 51.4°F10.8°C 71% 2.2 mph NW3.5 kmh NW 3.8 mph6.1 kmh 29.63 in1003.4 mb 0.00 in0.0 mm 0.00 in0.0 mm 0.00 in0.0 mm
05:30 AM 63.0°F17.2°C 50.6°F10.3°C 64% 6.0 mph NW9.7 kmh NW 13.6 mph21.9 kmh 29.64 in1003.7 mb 0.00 in0.0 mm 0.00 in0.0 mm 0.00 in0.0 mm
05:40 AM 63.9°F17.7°C 48.3°F9.1°C 57% 7.6 mph NNW12.2 kmh NNW 14.5 mph23.3 kmh 29.65 in1004.1 mb 0.00 in0.0 mm 0.00 in0.0 mm 0.00 in0.0 mm
05:50 AM 64.2°F17.9°C 46.2°F7.9°C 52% 7.6 mph NW12.2 kmh NW 19.7 mph31.7 kmh 29.65 in1004.1 mb 0.00 in0.0 mm 0.00 in0.0 mm 0.00 in0.0 mm
06:00 AM 64.4°F18.0°C 46.4°F8.0°C 52% 4.5 mph NW7.2 kmh NW 15.9 mph25.6 kmh 29.65 in1004.1 mb 0.00 in0.0 mm 0.00 in0.0 mm 0.00 in0.0 mm
06:10 AM 64.9°F18.3°C 46.4°F8.0°C 51% 10.7 mph NW17.2 kmh NW 17.4 mph28.0 kmh 29.66 in1004.4 mb 0.00 in0.0 mm 0.00 in0.0 mm 0.00 in0.0 mm
06:20 AM 64.9°F18.3°C 46.4°F8.0°C 51% 5.4 mph NW8.7 kmh NW 22.1 mph35.6 kmh 29.67 in1004.7 mb 0.00 in0.0 mm 0.00 in0.0 mm 0.00 in0.0 mm
06:30 AM 65.5°F18.6°C 46.9°F8.3°C 51% 5.4 mph NW8.7 kmh NW 13.6 mph21.9 kmh 29.67 in1004.7 mb 0.00 in0.0 mm 0.00 in0.0 mm 0.00 in0.0 mm
06:40 AM 65.5°F18.6°C 46.4°F8.0°C 50% 6.0 mph NW9.7 kmh NW 15.2 mph24.5 kmh 29.67 in1004.7 mb 0.00 in0.0 mm 0.00 in0.0 mm 0.00 in0.0 mm
06:50 AM 66.4°F19.1°C 46.7°F8.2°C 49% 8.3 mph NNW13.4 kmh NNW 13.0 mph20.9 kmh 29.67 in1004.7 mb 0.00 in0.0 mm 0.00 in0.0 mm 0.00 in0.0 mm
07:00 AM 66.9°F19.4°C 47.7°F8.7°C 50% 6.9 mph NW11.1 kmh NW 13.6 mph21.9 kmh 29.68 in1005.1 mb 0.00 in0.0 mm 0.00 in0.0 mm 0.00 in0.0 mm
07:10 AM 66.7°F19.3°C 46.4°F8.0°C 48% 8.3 mph NNW13.4 kmh NNW 15.2 mph24.5 kmh 29.68 in1005.1 mb 0.00 in0.0 mm 0.00 in0.0 mm 0.00 in0.0 mm
07:20 AM 66.9°F19.4°C 47.2°F8.4°C 49% 8.3 mph NW13.4 kmh NW 14.5 mph23.3 kmh 29.68 in1005.1 mb 0.00 in0.0 mm 0.00 in0.0 mm 0.00 in0.0 mm
07:30 AM 67.5°F19.7°C 47.1°F8.4°C 48% 15.2 mph NW24.5 kmh NW 19.7 mph31.7 kmh 29.69 in1005.4 mb 0.00 in0.0 mm 0.00 in0.0 mm 0.00 in0.0 mm
07:40 AM 67.1°F19.5°C 46.8°F8.2°C 48% 11.4 mph NW18.3 kmh NW 19.7 mph31.7 kmh 29.69 in1005.4 mb 0.00 in0.0 mm 0.00 in0.0 mm 0.00 in0.0 mm
07:50 AM 67.5°F19.7°C 46.5°F8.1°C 47% 9.2 mph NW14.8 kmh NW 19.0 mph30.6 kmh 29.70 in1005.8 mb 0.00 in0.0 mm 0.00 in0.0 mm 0.00 in0.0 mm
08:00 AM 68.5°F20.3°C 48.1°F8.9°C 48% 10.7 mph NNW17.2 kmh NNW 17.4 mph28.0 kmh 29.70 in1005.8 mb 0.00 in0.0 mm 0.00 in0.0 mm 0.00 in0.0 mm
08:10 AM 69.1°F20.6°C 47.5°F8.6°C 46% 13.6 mph NW21.9 kmh NW 17.4 mph28.0 kmh 29.70 in1005.8 mb 0.00 in0.0 mm 0.00 in0.0 mm 0.00 in0.0 mm
08:20 AM 68.5°F20.3°C 47.0°F8.3°C 46% 8.3 mph NW13.4 kmh NW 19.0 mph30.6 kmh 29.70 in1005.8 mb 0.00 in0.0 mm 0.00 in0.0 mm 0.00 in0.0 mm
08:30 AM 68.7°F20.4°C 45.9°F7.7°C 44% 11.4 mph NW18.3 kmh NW 18.3 mph29.5 kmh 29.70 in1005.8 mb 0.00 in0.0 mm 0.00 in0.0 mm 0.00 in0.0 mm
08:40 AM 68.9°F20.5°C 45.5°F7.5°C 43% 14.5 mph NW23.3 kmh NW 19.7 mph31.7 kmh 29.70 in1005.8 mb 0.00 in0.0 mm 0.00 in0.0 mm 0.00 in0.0 mm
08:50 AM 68.7°F20.4°C 45.3°F7.4°C 43% 13.0 mph NW20.9 kmh NW 22.1 mph35.6 kmh 29.70 in1005.8 mb 0.00 in0.0 mm 0.00 in0.0 mm 0.00 in0.0 mm
09:00 AM 68.9°F20.5°C 45.5°F7.5°C 43% 15.2 mph NW24.5 kmh NW 21.3 mph34.3 kmh 29.70 in1005.8 mb 0.00 in0.0 mm 0.00 in0.0 mm 0.00 in0.0 mm
09:10 AM 69.3°F20.7°C 45.8°F7.7°C 43% 11.4 mph NNW18.3 kmh NNW 22.8 mph36.7 kmh 29.70 in1005.8 mb 0.00 in0.0 mm 0.00 in0.0 mm 0.00 in0.0 mm
09:20 AM 69.3°F20.7°C 45.8°F7.7°C 43% 10.7 mph NNW17.2 kmh NNW 23.5 mph37.8 kmh 29.70 in1005.8 mb 0.00 in0.0 mm 0.00 in0.0 mm 0.00 in0.0 mm
09:30 AM 69.3°F20.7°C 45.8°F7.7°C 43% 12.1 mph NW19.5 kmh NW 21.3 mph34.3 kmh 29.70 in1005.8 mb 0.00 in0.0 mm 0.00 in0.0 mm 0.00 in0.0 mm
09:40 AM 70.3°F21.3°C 46.2°F7.9°C 42% 4.5 mph NW7.2 kmh NW 18.3 mph29.5 kmh 29.70 in1005.8 mb 0.00 in0.0 mm 0.00 in0.0 mm 0.00 in0.0 mm
09:50 AM 70.3°F21.3°C 46.2°F7.9°C 42% 11.4 mph NW18.3 kmh NW 22.8 mph36.7 kmh 29.70 in1005.8 mb 0.00 in0.0 mm 0.00 in0.0 mm 0.00 in0.0 mm
10:00 AM 70.3°F21.3°C 42.9°F6.1°C 37% 10.7 mph NW17.2 kmh NW 25.9 mph41.7 kmh 29.71 in1006.1 mb 0.00 in0.0 mm 0.00 in0.0 mm 0.00 in0.0 mm
10:10 AM 70.9°F21.6°C 43.3°F6.3°C 37% 13.6 mph NW21.9 kmh NW 20.6 mph33.2 kmh 29.71 in1006.1 mb 0.00 in0.0 mm 0.00 in0.0 mm 0.00 in0.0 mm
10:20 AM 70.2°F21.2°C 44.1°F6.7°C 39% 10.7 mph NW17.2 kmh NW 20.6 mph33.2 kmh 29.70 in1005.8 mb 0.00 in0.0 mm 0.00 in0.0 mm 0.00 in0.0 mm
10:30 AM 71.6°F22.0°C 46.0°F7.8°C 40% 6.0 mph NW9.7 kmh NW 20.6 mph33.2 kmh 29.70 in1005.8 mb 0.00 in0.0 mm 0.00 in0.0 mm 0.00 in0.0 mm
10:40 AM 71.6°F22.0°C 45.4°F7.4°C 39% 6.9 mph NW11.1 kmh NW 16.8 mph27.0 kmh 29.69 in1005.4 mb 0.00 in0.0 mm 0.00 in0.0 mm 0.00 in0.0 mm
10:50 AM 71.6°F22.0°C 44.0°F6.7°C 37% 9.2 mph NW14.8 kmh NW 15.2 mph24.5 kmh 29.69 in1005.4 mb 0.00 in0.0 mm 0.00 in0.0 mm 0.00 in0.0 mm
11:00 AM 71.8°F22.1°C 44.8°F7.1°C 38% 6.9 mph NNW11.1 kmh NNW 15.2 mph24.5 kmh 29.69 in1005.4 mb 0.00 in0.0 mm 0.00 in0.0 mm 0.00 in0.0 mm
11:10 AM 71.4°F21.9°C 45.9°F7.7°C 40% 8.3 mph NW13.4 kmh NW 19.7 mph31.7 kmh 29.69 in1005.4 mb 0.00 in0.0 mm 0.00 in0.0 mm 0.00 in0.0 mm
11:20 AM 70.7°F21.5°C 45.9°F7.7°C 41% 8.3 mph NW13.4 kmh NW 20.6 mph33.2 kmh 29.69 in1005.4 mb 0.00 in0.0 mm 0.00 in0.0 mm 0.00 in0.0 mm
11:30 AM 72.5°F22.5°C 47.5°F8.6°C 41% 9.8 mph NW15.8 kmh NW 21.3 mph34.3 kmh 29.69 in1005.4 mb 0.00 in0.0 mm 0.00 in0.0 mm 0.00 in0.0 mm
11:40 AM 73.2°F22.9°C 48.8°F9.3°C 42% 10.7 mph NW17.2 kmh NW 17.4 mph28.0 kmh 29.69 in1005.4 mb 0.00 in0.0 mm 0.00 in0.0 mm 0.00 in0.0 mm
11:50 AM 71.6°F22.0°C 47.9°F8.8°C 43% 10.7 mph NW17.2 kmh NW 23.5 mph37.8 kmh 29.69 in1005.4 mb 0.00 in0.0 mm 0.00 in0.0 mm 0.00 in0.0 mm
12:00 PM 71.8°F22.1°C 46.2°F7.9°C 40% 13.0 mph NNW20.9 kmh NNW 28.9 mph46.5 kmh 29.68 in1005.1 mb 0.00 in0.0 mm 0.00 in0.0 mm 0.00 in0.0 mm
12:10 PM 71.4°F21.9°C 47.8°F8.8°C 43% 17.4 mph NNW28.0 kmh NNW 26.6 mph42.8 kmh 29.68 in1005.1 mb 0.00 in0.0 mm 0.00 in0.0 mm 0.00 in0.0 mm
12:20 PM 71.8°F22.1°C 46.2°F7.9°C 40% 13.6 mph NW21.9 kmh NW 25.9 mph41.7 kmh 29.69 in1005.4 mb 0.00 in0.0 mm 0.00 in0.0 mm 0.00 in0.0 mm
12:30 PM 73.4°F23.0°C 45.6°F7.6°C 37% 11.4 mph NW18.3 kmh NW 25.1 mph40.4 kmh 29.68 in1005.1 mb 0.00 in0.0 mm 0.00 in0.0 mm 0.00 in0.0 mm
12:40 PM 73.8°F23.2°C 45.2°F7.3°C 36% 8.3 mph NW13.4 kmh NW 23.5 mph37.8 kmh 29.68 in1005.1 mb 0.00 in0.0 mm 0.00 in0.0 mm 0.00 in0.0 mm
12:50 PM 73.6°F23.1°C 44.3°F6.8°C 35% 12.1 mph NW19.5 kmh NW 25.9 mph41.7 kmh 29.69 in1005.4 mb 0.00 in0.0 mm 0.00 in0.0 mm 0.00 in0.0 mm
01:00 PM 71.8°F22.1°C 48.1°F8.9°C 43% 11.4 mph W18.3 kmh W 22.1 mph35.6 kmh 29.68 in1005.1 mb 0.00 in0.0 mm 0.00 in0.0 mm 0.00 in0.0 mm
01:10 PM 71.2°F21.8°C 49.4°F9.7°C 46% 9.2 mph WNW14.8 kmh WNW 21.3 mph34.3 kmh 29.69 in1005.4 mb 0.00 in0.0 mm 0.00 in0.0 mm 0.00 in0.0 mm
01:20 PM 71.6°F22.0°C 49.2°F9.6°C 45% 4.5 mph W7.2 kmh W 18.3 mph29.5 kmh 29.68 in1005.1 mb 0.00 in0.0 mm 0.00 in0.0 mm 0.00 in0.0 mm
01:30 PM 72.0°F22.2°C 48.9°F9.4°C 44% 19.0 mph NW30.6 kmh NW 26.6 mph42.8 kmh 29.68 in1005.1 mb 0.00 in0.0 mm 0.00 in0.0 mm 0.00 in0.0 mm
01:40 PM 72.1°F22.3°C 48.4°F9.1°C 43% 11.4 mph NW18.3 kmh NW 26.6 mph42.8 kmh 29.68 in1005.1 mb 0.00 in0.0 mm 0.00 in0.0 mm 0.00 in0.0 mm
01:50 PM 71.6°F22.0°C 49.8°F9.9°C 46% 13.0 mph NNW20.9 kmh NNW 26.6 mph42.8 kmh 29.67 in1004.7 mb 0.00 in0.0 mm 0.00 in0.0 mm 0.00 in0.0 mm
02:00 PM 72.7°F22.6°C 48.9°F9.4°C 43% 13.6 mph NW21.9 kmh NW 22.8 mph36.7 kmh 29.68 in1005.1 mb 0.00 in0.0 mm 0.00 in0.0 mm 0.00 in0.0 mm
02:10 PM 73.2°F22.9°C 50.0°F10.0°C 44% 7.6 mph NW12.2 kmh NW 21.3 mph34.3 kmh 29.68 in1005.1 mb 0.00 in0.0 mm 0.00 in0.0 mm 0.00 in0.0 mm
02:20 PM 72.7°F22.6°C 47.0°F8.3°C 40% 11.4 mph NNW18.3 kmh NNW 22.1 mph35.6 kmh 29.68 in1005.1 mb 0.00 in0.0 mm 0.00 in0.0 mm 0.00 in0.0 mm
02:30 PM 73.2°F22.9°C 48.1°F8.9°C 41% 9.8 mph NW15.8 kmh NW 24.4 mph39.3 kmh 29.68 in1005.1 mb 0.00 in0.0 mm 0.00 in0.0 mm 0.00 in0.0 mm
02:40 PM 72.7°F22.6°C 46.3°F7.9°C 39% 9.8 mph NW15.8 kmh NW 19.0 mph30.6 kmh 29.67 in1004.7 mb 0.00 in0.0 mm 0.00 in0.0 mm 0.00 in0.0 mm
02:50 PM 73.2°F22.9°C 45.4°F7.4°C 37% 14.5 mph NW23.3 kmh NW 22.8 mph36.7 kmh 29.67 in1004.7 mb 0.00 in0.0 mm 0.00 in0.0 mm 0.00 in0.0 mm
03:00 PM 74.3°F23.5°C 45.6°F7.6°C 36% 6.0 mph NW9.7 kmh NW 20.6 mph33.2 kmh 29.67 in1004.7 mb 0.00 in0.0 mm 0.00 in0.0 mm 0.00 in0.0 mm
03:10 PM 73.9°F23.3°C 46.1°F7.8°C 37% 9.8 mph NW15.8 kmh NW 21.3 mph34.3 kmh 29.67 in1004.7 mb 0.00 in0.0 mm 0.00 in0.0 mm 0.00 in0.0 mm
03:20 PM 74.1°F23.4°C 48.3°F9.1°C 40% 6.0 mph NW9.7 kmh NW 14.5 mph23.3 kmh 29.67 in1004.7 mb 0.00 in0.0 mm 0.00 in0.0 mm 0.00 in0.0 mm
03:30 PM 74.3°F23.5°C 46.4°F8.0°C 37% 12.1 mph NW19.5 kmh NW 15.2 mph24.5 kmh 29.66 in1004.4 mb 0.00 in0.0 mm 0.00 in0.0 mm 0.00 in0.0 mm
03:40 PM 74.5°F23.6°C 48.6°F9.2°C 40% 6.9 mph NW11.1 kmh NW 20.6 mph33.2 kmh 29.66 in1004.4 mb 0.00 in0.0 mm 0.00 in0.0 mm 0.00 in0.0 mm
03:50 PM 73.8°F23.2°C 47.3°F8.5°C 39% 4.5 mph NW7.2 kmh NW 22.1 mph35.6 kmh 29.67 in1004.7 mb 0.00 in0.0 mm 0.00 in0.0 mm 0.00 in0.0 mm
04:00 PM 76.3°F24.6°C 43.5°F6.4°C 31% 8.3 mph WNW13.4 kmh WNW 13.6 mph21.9 kmh 29.67 in1004.7 mb 0.00 in0.0 mm 0.00 in0.0 mm 0.00 in0.0 mm
04:10 PM 74.7°F23.7°C 45.2°F7.3°C 35% 4.5 mph WNW7.2 kmh WNW 17.4 mph28.0 kmh 29.67 in1004.7 mb 0.00 in0.0 mm 0.00 in0.0 mm 0.00 in0.0 mm
04:20 PM 76.3°F24.6°C 44.3°F6.8°C 32% 5.4 mph W8.7 kmh W 14.5 mph23.3 kmh 29.67 in1004.7 mb 0.00 in0.0 mm 0.00 in0.0 mm 0.00 in0.0 mm
04:30 PM 74.5°F23.6°C 41.9°F5.5°C 31% 9.2 mph NW14.8 kmh NW 16.8 mph27.0 kmh 29.67 in1004.7 mb 0.00 in0.0 mm 0.00 in0.0 mm 0.00 in0.0 mm
04:40 PM 74.7°F23.7°C 42.1°F5.6°C 31% 9.2 mph NW14.8 kmh NW 19.0 mph30.6 kmh 29.67 in1004.7 mb 0.00 in0.0 mm 0.00 in0.0 mm 0.00 in0.0 mm
04:50 PM 75.0°F23.9°C 43.2°F6.2°C 32% 8.3 mph NW13.4 kmh NW 18.3 mph29.5 kmh 29.67 in1004.7 mb 0.00 in0.0 mm 0.00 in0.0 mm 0.00 in0.0 mm
05:00 PM 75.0°F23.9°C 43.2°F6.2°C 32% 8.3 mph NW13.4 kmh NW 15.9 mph25.6 kmh 29.68 in1005.1 mb 0.00 in0.0 mm 0.00 in0.0 mm 0.00 in0.0 mm
05:10 PM 72.9°F22.7°C 40.5°F4.7°C 31% 13.0 mph NW20.9 kmh NW 19.0 mph30.6 kmh 29.68 in1005.1 mb 0.00 in0.0 mm 0.00 in0.0 mm 0.00 in0.0 mm
05:20 PM 72.7°F22.6°C 40.3°F4.6°C 31% 12.1 mph NW19.5 kmh NW 21.3 mph34.3 kmh 29.67 in1004.7 mb 0.00 in0.0 mm 0.00 in0.0 mm 0.00 in0.0 mm
05:30 PM 72.0°F22.2°C 40.5°F4.7°C 32% 15.2 mph NW24.5 kmh NW 26.6 mph42.8 kmh 29.67 in1004.7 mb 0.00 in0.0 mm 0.00 in0.0 mm 0.00 in0.0 mm
05:40 PM 72.0°F22.2°C 40.5°F4.7°C 32% 10.7 mph NW17.2 kmh NW 21.3 mph34.3 kmh 29.67 in1004.7 mb 0.00 in0.0 mm 0.00 in0.0 mm 0.00 in0.0 mm
05:50 PM 72.1°F22.3°C 41.5°F5.3°C 33% 9.2 mph NW14.8 kmh NW 15.2 mph24.5 kmh 29.69 in1005.4 mb 0.00 in0.0 mm 0.00 in0.0 mm 0.00 in0.0 mm
06:00 PM 71.4°F21.9°C 40.8°F4.9°C 33% 8.3 mph NW13.4 kmh NW 16.8 mph27.0 kmh 29.70 in1005.8 mb 0.00 in0.0 mm 0.00 in0.0 mm 0.00 in0.0 mm
06:10 PM 71.1°F21.7°C 41.3°F5.2°C 34% 5.4 mph NW8.7 kmh NW 14.5 mph23.3 kmh 29.70 in1005.8 mb 0.00 in0.0 mm 0.00 in0.0 mm 0.00 in0.0 mm
06:20 PM 70.7°F21.5°C 41.0°F5.0°C 34% 6.0 mph NW9.7 kmh NW 15.2 mph24.5 kmh 29.70 in1005.8 mb 0.00 in0.0 mm 0.00 in0.0 mm 0.00 in0.0 mm
06:30 PM 70.0°F21.1°C 41.1°F5.1°C 35% 14.5 mph NW23.3 kmh NW 19.0 mph30.6 kmh 29.70 in1005.8 mb 0.00 in0.0 mm 0.00 in0.0 mm 0.00 in0.0 mm
06:40 PM 69.1°F20.6°C 42.4°F5.8°C 38% 15.9 mph NW25.6 kmh NW 19.7 mph31.7 kmh 29.69 in1005.4 mb 0.00 in0.0 mm 0.00 in0.0 mm 0.00 in0.0 mm
06:50 PM 68.5°F20.3°C 42.6°F5.9°C 39% 8.3 mph NW13.4 kmh NW 21.3 mph34.3 kmh 29.70 in1005.8 mb 0.00 in0.0 mm 0.00 in0.0 mm 0.00 in0.0 mm
07:00 PM 67.8°F19.9°C 42.6°F5.9°C 40% 12.1 mph NW19.5 kmh NW 19.7 mph31.7 kmh 29.70 in1005.8 mb 0.00 in0.0 mm 0.00 in0.0 mm 0.00 in0.0 mm
07:10 PM 66.6°F19.2°C 42.8°F6.0°C 42% 6.0 mph NW9.7 kmh NW 19.7 mph31.7 kmh 29.70 in1005.8 mb 0.00 in0.0 mm 0.00 in0.0 mm 0.00 in0.0 mm
07:20 PM 65.7°F18.7°C 43.8°F6.6°C 45% 0.7 mph NW1.1 kmh NW 15.2 mph24.5 kmh 29.71 in1006.1 mb 0.00 in0.0 mm 0.00 in0.0 mm 0.00 in0.0 mm
07:30 PM 64.8°F18.2°C 43.5°F6.4°C 46% 1.6 mph E2.6 kmh E 3.8 mph6.1 kmh 29.71 in1006.1 mb 0.00 in0.0 mm 0.00 in0.0 mm 0.00 in0.0 mm
07:40 PM 63.9°F17.7°C 43.8°F6.6°C 48% 0.7 mph NE1.1 kmh NE 4.5 mph7.2 kmh 29.72 in1006.4 mb 0.00 in0.0 mm 0.00 in0.0 mm 0.00 in0.0 mm
07:50 PM 63.5°F17.5°C 43.5°F6.4°C 48% 1.6 mph ENE2.6 kmh ENE 5.4 mph8.7 kmh 29.73 in1006.8 mb 0.00 in0.0 mm 0.00 in0.0 mm 0.00 in0.0 mm
08:00 PM 63.1°F17.3°C 42.0°F5.6°C 46% 0.7 mph WNW1.1 kmh WNW 3.1 mph5.0 kmh 29.73 in1006.8 mb 0.00 in0.0 mm 0.00 in0.0 mm 0.00 in0.0 mm
08:10 PM 62.6°F17.0°C 44.2°F6.8°C 51% 6.9 mph NW11.1 kmh NW 9.8 mph15.8 kmh 29.73 in1006.8 mb 0.00 in0.0 mm 0.00 in0.0 mm 0.00 in0.0 mm
08:20 PM 63.0°F17.2°C 40.1°F4.5°C 43% 11.4 mph NW18.3 kmh NW 18.3 mph29.5 kmh 29.73 in1006.8 mb 0.00 in0.0 mm 0.00 in0.0 mm 0.00 in0.0 mm
08:30 PM 63.3°F17.4°C 38.0°F3.3°C 39% 5.4 mph NNW8.7 kmh NNW 19.7 mph31.7 kmh 29.73 in1006.8 mb 0.00 in0.0 mm 0.00 in0.0 mm 0.00 in0.0 mm
08:40 PM 63.0°F17.2°C 37.0°F2.8°C 38% 6.9 mph NW11.1 kmh NW 13.6 mph21.9 kmh 29.75 in1007.5 mb 0.00 in0.0 mm 0.00 in0.0 mm 0.00 in0.0 mm
08:50 PM 62.6°F17.0°C 38.0°F3.3°C 40% 3.1 mph NNW5.0 kmh NNW 9.2 mph14.8 kmh 29.75 in1007.5 mb 0.00 in0.0 mm 0.00 in0.0 mm 0.00 in0.0 mm
09:00 PM 61.9°F16.6°C 39.2°F4.0°C 43% 2.2 mph NNW3.5 kmh NNW 6.0 mph9.7 kmh 29.74 in1007.1 mb 0.00 in0.0 mm 0.00 in0.0 mm 0.00 in0.0 mm
09:10 PM 61.3°F16.3°C 41.0°F5.0°C 47% 1.6 mph N2.6 kmh N 9.8 mph15.8 kmh 29.75 in1007.5 mb 0.00 in0.0 mm 0.00 in0.0 mm 0.00 in0.0 mm
09:20 PM 60.6°F15.9°C 42.9°F6.1°C 52% 3.8 mph N6.1 kmh N 6.0 mph9.7 kmh 29.75 in1007.5 mb 0.00 in0.0 mm 0.00 in0.0 mm 0.00 in0.0 mm
09:30 PM 60.3°F15.7°C 43.1°F6.2°C 53% 2.2 mph N3.5 kmh N 6.0 mph9.7 kmh 29.76 in1007.8 mb 0.00 in0.0 mm 0.00 in0.0 mm 0.00 in0.0 mm
09:40 PM 59.7°F15.4°C 42.6°F5.9°C 53% 1.6 mph NE2.6 kmh NE 3.8 mph6.1 kmh 29.76 in1007.8 mb 0.00 in0.0 mm 0.00 in0.0 mm 0.00 in0.0 mm
09:50 PM 59.7°F15.4°C 43.1°F6.2°C 54% 2.2 mph N3.5 kmh N 6.0 mph9.7 kmh 29.75 in1007.5 mb 0.00 in0.0 mm 0.00 in0.0 mm 0.00 in0.0 mm
10:00 PM 59.9°F15.5°C 43.7°F6.5°C 55% 3.8 mph N6.1 kmh N 9.2 mph14.8 kmh 29.75 in1007.5 mb 0.00 in0.0 mm 0.00 in0.0 mm 0.00 in0.0 mm
10:10 PM 60.1°F15.6°C 43.4°F6.3°C 54% 2.2 mph N3.5 kmh N 8.3 mph13.4 kmh 29.76 in1007.8 mb 0.00 in0.0 mm 0.00 in0.0 mm 0.00 in0.0 mm
10:20 PM 59.9°F15.5°C 43.7°F6.5°C 55% 5.4 mph N8.7 kmh N 8.3 mph13.4 kmh 29.77 in1008.1 mb 0.00 in0.0 mm 0.00 in0.0 mm 0.00 in0.0 mm
10:30 PM 59.9°F15.5°C 43.7°F6.5°C 55% 6.9 mph NNW11.1 kmh NNW 13.0 mph20.9 kmh 29.77 in1008.1 mb 0.00 in0.0 mm 0.00 in0.0 mm 0.00 in0.0 mm
10:40 PM 60.3°F15.7°C 44.0°F6.7°C 55% 3.8 mph NW6.1 kmh NW 15.2 mph24.5 kmh 29.77 in1008.1 mb 0.00 in0.0 mm 0.00 in0.0 mm 0.00 in0.0 mm
10:50 PM 60.1°F15.6°C 43.9°F6.6°C 55% 3.1 mph N5.0 kmh N 7.6 mph12.2 kmh 29.78 in1008.5 mb 0.00 in0.0 mm 0.00 in0.0 mm 0.00 in0.0 mm
11:00 PM 59.9°F15.5°C 44.2°F6.8°C 56% 3.1 mph N5.0 kmh N 8.3 mph13.4 kmh 29.78 in1008.5 mb 0.00 in0.0 mm 0.00 in0.0 mm 0.00 in0.0 mm
11:10 PM 59.5°F15.3°C 44.8°F7.1°C 58% 3.8 mph N6.1 kmh N 7.6 mph12.2 kmh 29.78 in1008.5 mb 0.00 in0.0 mm 0.00 in0.0 mm 0.00 in0.0 mm
11:20 PM 59.4°F15.2°C 45.0°F7.2°C 59% 3.1 mph N5.0 kmh N 8.3 mph13.4 kmh 29.78 in1008.5 mb 0.00 in0.0 mm 0.00 in0.0 mm 0.00 in0.0 mm
11:30 PM 59.4°F15.2°C 45.5°F7.5°C 60% 3.8 mph N6.1 kmh N 10.7 mph17.2 kmh 29.78 in1008.5 mb 0.00 in0.0 mm 0.00 in0.0 mm 0.00 in0.0 mm
11:40 PM 58.8°F14.9°C 45.8°F7.7°C 62% 3.1 mph N5.0 kmh N 6.9 mph11.1 kmh 29.79 in1008.8 mb 0.00 in0.0 mm 0.00 in0.0 mm 0.00 in0.0 mm
11:50 PM 58.5°F14.7°C 46.3°F7.9°C 64% 5.4 mph NNW8.7 kmh NNW 7.6 mph12.2 kmh 29.78 in1008.5 mb 0.00 in0.0 mm 0.00 in0.0 mm 0.00 in0.0 mm